Time;durP1;ratioP1;P1;durP2;ratioP2;P2;SDS_P1;SDS_P2;PMS_P1;PMS_P2;Temp;Humidity;BMP_temperature;BMP_pressure;BME280_temperature;BME280_humidity;BME280_pressure;Samples;Min_cycle;Max_cycle;Signal;HPM_P1;HPM_P2
2022/11/06 00:00:13;;;;;;;41.58;8.02;;;;;;;15.34;100.00;98306.75;5017222;28;20037;-58
2022/11/06 00:02:38;;;;;;;47.47;8.85;;;;;;;15.86;100.00;98301.22;5017341;28;20033;-59
2022/11/06 00:07:48;;;;;;;38.00;6.90;;;;;;;15.75;100.00;98300.97;5017931;28;20044;-59
2022/11/06 00:10:14;;;;;;;38.17;9.88;;;;;;;14.22;100.00;98306.50;5015922;28;20009;-60
2022/11/06 00:12:40;;;;;;;29.85;6.78;;;;;;;14.87;100.00;98303.19;5015623;28;20770;-60
2022/11/06 00:15:06;;;;;;;86.85;11.07;;;;;;;14.20;100.00;98300.47;5018111;28;20033;-60
2022/11/06 00:17:31;;;;;;;27.17;6.45;;;;;;;14.96;100.00;98301.81;5017551;28;20091;-61
2022/11/06 00:19:57;;;;;;;36.88;6.88;;;;;;;15.56;100.00;98307.25;5016737;28;20021;-60
2022/11/06 00:22:22;;;;;;;28.38;7.40;;;;;;;14.48;100.00;98306.91;5016155;28;20124;-62
2022/11/06 00:24:48;;;;;;;35.97;7.57;;;;;;;14.74;100.00;98310.00;5017224;28;20579;-60
2022/11/06 00:27:14;;;;;;;28.33;6.47;;;;;;;14.65;100.00;98303.47;5016175;28;20489;-59
2022/11/06 00:29:39;;;;;;;43.45;11.13;;;;;;;13.30;100.00;98300.50;5016418;28;20087;-57
2022/11/06 00:32:05;;;;;;;44.08;10.48;;;;;;;13.59;100.00;98299.13;5016977;28;20522;-58
2022/11/06 00:34:31;;;;;;;31.02;8.63;;;;;;;13.96;100.00;98299.94;5018078;28;20057;-59
2022/11/06 00:36:56;;;;;;;36.38;8.70;;;;;;;14.86;100.00;98305.88;5016918;28;20736;-59
2022/11/06 00:39:21;;;;;;;38.88;9.15;;;;;;;13.66;100.00;98303.16;5017561;28;20128;-59
2022/11/06 00:41:46;;;;;;;49.03;9.70;;;;;;;14.26;100.00;98301.94;5014614;28;20124;-59
2022/11/06 00:44:12;;;;;;;53.28;9.32;;;;;;;14.36;100.00;98294.47;5016374;28;20025;-59
2022/11/06 00:46:37;;;;;;;56.00;10.00;;;;;;;14.11;100.00;98297.47;5016997;28;20034;-59
2022/11/06 00:49:03;;;;;;;46.70;9.88;;;;;;;14.25;100.00;98300.25;5017615;28;20104;-62
2022/11/06 00:51:30;;;;;;;67.40;11.32;;;;;;;13.96;100.00;98302.56;5015867;28;20029;-60
2022/11/06 00:53:59;;;;;;;57.90;10.57;;;;;;;13.00;100.00;98297.56;5017753;28;20025;-57
2022/11/06 00:56:25;;;;;;;47.53;9.48;;;;;;;13.48;100.00;98301.44;5015946;28;20035;-61
2022/11/06 00:58:51;;;;;;;72.15;11.70;;;;;;;12.84;100.00;98308.72;5015791;28;20033;-57
2022/11/06 01:01:26;;;;;;;92.88;13.10;;;;;;;12.65;100.00;98303.47;5015848;28;20536;-59
2022/11/06 01:03:53;;;;;;;55.97;11.65;;;;;;;12.52;100.00;98297.91;5017420;28;20041;-57
2022/11/06 01:06:21;;;;;;;44.80;10.70;;;;;;;13.38;100.00;98301.03;5016679;28;20072;-59
2022/11/06 01:08:49;;;;;;;41.03;9.27;;;;;;;13.20;100.00;98302.72;5017513;28;20026;-58
2022/11/06 01:11:17;;;;;;;35.88;7.43;;;;;;;14.46;100.00;98309.66;5014052;28;20044;-58
2022/11/06 01:13:44;;;;;;;65.53;11.10;;;;;;;13.00;100.00;98313.25;5015372;28;20017;-58
2022/11/06 01:16:12;;;;;;;75.53;12.82;;;;;;;12.49;100.00;98313.75;5016444;28;20924;-58
2022/11/06 01:18:38;;;;;;;50.88;9.13;;;;;;;12.86;100.00;98316.50;5016461;28;20025;-59
2022/11/06 01:21:06;;;;;;;45.63;9.55;;;;;;;12.91;100.00;98322.38;5015755;28;20068;-59
2022/11/06 01:23:32;;;;;;;89.55;12.43;;;;;;;12.69;100.00;98317.25;5016521;28;20025;-59
2022/11/06 01:25:59;;;;;;;123.38;11.57;;;;;;;12.76;100.00;98316.06;5015720;28;20037;-58
2022/11/06 01:28:25;;;;;;;83.07;11.05;;;;;;;13.42;100.00;98314.84;5015501;28;20024;-58
2022/11/06 01:30:51;;;;;;;245.20;14.60;;;;;;;12.56;100.00;98310.88;5015710;28;20037;-60
2022/11/06 01:33:16;;;;;;;228.23;14.65;;;;;;;12.83;100.00;98312.25;5016506;28;20052;-59
2022/11/06 01:35:50;;;;;;;79.25;11.25;;;;;;;12.96;100.00;98307.31;5016088;28;20064;-57
2022/11/06 01:38:16;;;;;;;38.67;8.80;;;;;;;13.10;100.00;98304.03;5016759;28;20095;-58
2022/11/06 01:40:43;;;;;;;87.15;12.50;;;;;;;13.09;100.00;98308.44;5014424;28;20511;-57
2022/11/06 01:43:42;;;;;;;36.60;6.88;;;;;;;13.78;100.00;98303.47;5013806;28;20029;-57
2022/11/06 01:46:08;;;;;;;45.00;8.45;;;;;;;13.75;100.00;98306.25;5016167;28;20038;-60
2022/11/06 01:48:34;;;;;;;301.50;15.70;;;;;;;12.58;100.00;98314.28;5016053;28;20029;-57
2022/11/06 01:50:59;;;;;;;187.27;15.65;;;;;;;12.67;100.00;98308.63;5014911;28;20045;-58
2022/11/06 01:53:26;;;;;;;114.15;12.38;;;;;;;12.76;100.00;98305.59;5016246;28;20065;-58
2022/11/06 01:55:55;;;;;;;228.90;14.00;;;;;;;12.67;100.00;98306.84;5014762;28;20515;-60
2022/11/06 01:58:22;;;;;;;245.05;14.00;;;;;;;12.62;100.00;98297.50;5014639;28;20022;-58
2022/11/06 02:00:49;;;;;;;280.75;15.60;;;;;;;12.46;100.00;98306.03;5014126;28;20529;-57
2022/11/06 02:03:14;;;;;;;230.60;15.20;;;;;;;12.80;100.00;98295.84;5015835;28;20625;-57
2022/11/06 02:05:40;;;;;;;70.00;11.50;;;;;;;13.06;100.00;98307.72;5015909;28;20034;-58
2022/11/06 02:08:10;;;;;;;70.22;12.02;;;;;;;13.03;100.00;98292.16;5015485;28;20036;-61
2022/11/06 02:10:36;;;;;;;189.80;14.73;;;;;;;12.98;100.00;98288.91;5013212;28;20044;-57
2022/11/06 02:13:17;;;;;;;74.80;10.43;;;;;;;13.02;100.00;98282.63;5013749;28;20021;-59
2022/11/06 02:15:48;;;;;;;75.68;11.35;;;;;;;12.92;100.00;98285.66;5015111;28;20045;-61
2022/11/06 02:18:41;;;;;;;84.82;10.18;;;;;;;13.10;100.00;98289.19;5015030;28;20033;-58
2022/11/06 02:21:06;;;;;;;38.15;9.23;;;;;;;14.32;100.00;98291.16;5014345;28;20511;-60
2022/11/06 02:23:43;;;;;;;95.25;13.00;;;;;;;13.35;100.00;98284.59;5015909;28;20025;-60
2022/11/06 02:26:46;;;;;;;56.80;9.55;;;;;;;13.30;100.00;98282.16;5014476;28;20047;-60
2022/11/06 02:29:16;;;;;;;;;;;;;;;13.57;100.00;98293.13;5015067;28;20061;-59
2022/11/06 02:31:44;;;;;;;118.18;12.80;;;;;;;12.38;100.00;98284.59;5014020;28;19917;-59
2022/11/06 02:34:15;;;;;;;101.45;12.05;;;;;;;12.82;100.00;98283.53;5014189;28;20037;-59
2022/11/06 02:36:49;;;;;;;44.08;8.73;;;;;;;13.77;100.00;98281.66;5014909;28;20549;-60
2022/11/06 02:39:18;;;;;;;192.75;13.60;;;;;;;12.52;100.00;98287.44;5015350;28;20025;-60
2022/11/06 02:41:46;;;;;;;79.10;10.38;;;;;;;13.04;100.00;98286.00;5012378;28;20408;-58
2022/11/06 02:44:16;;;;;;;84.63;11.63;;;;;;;12.62;100.00;98276.56;5014798;28;20095;-59
2022/11/06 02:47:07;;;;;;;135.68;13.38;;;;;;;12.51;100.00;98283.13;5014808;28;20037;-60
2022/11/06 02:49:44;;;;;;;78.50;10.82;;;;;;;12.15;100.00;98282.97;5015645;28;20080;-59
2022/11/06 02:52:17;;;;;;;49.38;9.65;;;;;;;12.98;100.00;98278.44;5013643;28;20148;-61
2022/11/06 02:54:48;;;;;;;111.15;12.32;;;;;;;12.78;100.00;98277.59;5011058;28;20037;-59
2022/11/06 02:57:15;;;;;;;68.63;10.95;;;;;;;12.78;100.00;98276.75;5013146;28;20044;-61
2022/11/06 03:00:00;;;;;;;115.30;11.93;;;;;;;12.46;100.00;98268.53;5013688;28;20013;-57
2022/11/06 03:02:37;;;;;;;80.22;10.82;;;;;;;13.44;100.00;98271.06;5014958;28;20065;-60
2022/11/06 03:05:25;;;;;;;111.30;12.02;;;;;;;13.36;100.00;98278.44;5015246;28;20647;-58
2022/11/06 03:07:59;;;;;;;45.75;8.60;;;;;;;14.06;100.00;98280.22;5007500;28;20042;-60
2022/11/06 03:10:32;;;;;;;149.60;13.90;;;;;;;12.61;100.00;98277.47;5013789;28;20045;-59
2022/11/06 03:13:06;;;;;;;52.75;10.00;;;;;;;13.08;100.00;98271.84;5013033;28;20395;-58
2022/11/06 03:15:46;;;;;;;132.20;13.57;;;;;;;12.24;100.00;98276.47;5014940;28;20108;-60
2022/11/06 03:18:32;;;;;;;75.25;11.57;;;;;;;13.36;100.00;98275.81;5015177;28;20022;-60
2022/11/06 03:21:03;;;;;;;70.82;10.95;;;;;;;12.63;100.00;98267.81;5013892;28;20052;-60
2022/11/06 03:23:52;;;;;;;89.43;12.63;;;;;;;12.52;100.00;98271.75;5015091;28;20121;-60
2022/11/06 03:26:26;;;;;;;47.08;8.98;;;;;;;13.74;100.00;98255.59;5013197;28;20030;-60
2022/11/06 03:28:56;;;;;;;48.63;10.63;;;;;;;13.09;100.00;98250.00;5013367;28;20021;-59
2022/11/06 03:31:47;;;;;;;42.65;9.27;;;;;;;13.81;100.00;98250.91;5013140;28;20033;-60
2022/11/06 03:34:21;;;;;;;56.28;11.35;;;;;;;13.30;100.00;98243.72;5014609;28;20399;-60
2022/11/06 03:36:55;;;;;;;47.38;11.25;;;;;;;13.62;100.00;98233.47;5014247;28;20735;-58
2022/11/06 03:39:28;;;;;;;44.17;10.35;;;;;;;12.67;100.00;98232.72;5014871;28;20648;-60
2022/11/06 03:42:05;;;;;;;49.78;11.25;;;;;;;13.19;100.00;98245.16;5011895;28;20502;-58
2022/11/06 03:44:34;;;;;;;44.58;10.77;;;;;;;13.09;100.00;98244.75;5014560;28;20017;-58
2022/11/06 03:47:11;;;;;;;85.03;12.32;;;;;;;12.65;100.00;98240.66;5014357;28;20030;-61
2022/11/06 03:49:44;;;;;;;46.28;10.43;;;;;;;12.77;100.00;98235.75;5014122;28;20009;-59
2022/11/06 03:52:29;;;;;;;37.72;9.23;;;;;;;13.57;100.00;98239.88;5014113;28;20565;-57
2022/11/06 03:55:07;;;;;;;32.83;6.45;;;;;;;14.21;100.00;98231.34;5013685;28;20588;-59
2022/11/06 03:57:45;;;;;;;41.33;9.82;;;;;;;13.43;100.00;98227.44;4996921;28;20860;-57
2022/11/06 04:00:11;;;;;;;60.38;11.57;;;;;;;13.67;100.00;98231.47;4998696;28;20116;-58
2022/11/06 04:02:42;;;;;;;54.10;8.82;;;;;;;14.42;100.00;98229.38;5017917;28;20090;-59
2022/11/06 04:05:14;;;;;;;56.92;10.93;;;;;;;14.25;100.00;98221.53;5016299;28;20124;-61
2022/11/06 04:13:56;;;;;;;62.63;12.63;;;;;;;13.83;100.00;98220.22;5016905;28;20065;-58
2022/11/06 04:16:07;;;;;;;145.18;14.35;;;;;;;12.47;100.00;98210.94;5017723;28;20036;-61
2022/11/06 04:18:33;;;;;;;62.13;10.57;;;;;;;13.18;100.00;98204.16;5018452;28;20021;-58
2022/11/06 04:21:35;;;;;;;59.78;10.45;;;;;;;13.35;100.00;98208.63;5016132;28;20052;-62
2022/11/06 04:27:06;;;;;;;117.28;13.55;;;;;;;13.08;100.00;98220.31;5015078;28;20049;-62
2022/11/06 04:29:33;;;;;;;72.88;12.52;;;;;;;13.09;100.00;98218.56;5017713;28;20029;-60
2022/11/06 04:32:10;;;;;;;87.85;12.73;;;;;;;13.00;100.00;98224.25;5016221;28;21208;-58
2022/11/06 04:34:46;;;;;;;86.40;11.27;;;;;;;12.22;100.00;98226.03;5018529;28;20029;-61
2022/11/06 04:37:14;;;;;;;104.32;12.20;;;;;;;12.58;100.00;98222.69;5016880;28;20045;-59
2022/11/06 04:39:45;;;;;;;78.68;11.57;;;;;;;12.69;100.00;98217.81;5016885;28;20091;-59
2022/11/06 04:42:16;;;;;;;49.45;8.68;;;;;;;13.54;100.00;98219.03;5015082;28;20088;-58
2022/11/06 04:44:50;;;;;;;58.60;11.30;;;;;;;12.97;100.00;98213.91;5017157;28;20033;-60
2022/11/06 04:47:19;;;;;;;144.88;13.60;;;;;;;12.89;100.00;98212.47;5016826;28;20037;-60
2022/11/06 04:49:47;;;;;;;115.75;13.32;;;;;;;12.43;100.00;98214.59;5016937;28;20108;-60
2022/11/06 04:52:18;;;;;;;202.43;14.60;;;;;;;12.32;100.00;98211.63;5016503;28;20044;-59
2022/11/06 04:54:45;;;;;;;142.00;14.77;;;;;;;12.39;100.00;98202.59;5017226;28;20672;-59
2022/11/06 04:57:11;;;;;;;202.23;14.70;;;;;;;12.29;100.00;98202.13;5015059;28;20069;-57
2022/11/06 04:59:37;;;;;;;324.77;16.95;;;;;;;12.38;100.00;98210.50;5016752;28;20145;-59
2022/11/06 05:02:04;;;;;;;61.83;9.45;;;;;;;13.67;100.00;98207.88;5015847;28;20041;-59
2022/11/06 05:04:30;;;;;;;118.90;12.18;;;;;;;13.23;100.00;98199.53;5016876;28;20113;-58
2022/11/06 05:06:55;;;;;;;162.93;12.85;;;;;;;12.91;100.00;98199.34;5016317;28;20037;-57
2022/11/06 05:09:21;;;;;;;104.60;12.10;;;;;;;12.70;100.00;98195.94;5016788;28;20033;-57
2022/11/06 05:11:46;;;;;;;71.07;9.77;;;;;;;12.73;100.00;98187.94;5013367;28;20744;-57
2022/11/06 05:14:11;;;;;;;86.72;11.05;;;;;;;13.17;100.00;98187.59;5016722;28;20030;-59
2022/11/06 05:16:37;;;;;;;128.85;13.35;;;;;;;12.47;100.00;98184.75;5016504;28;20090;-59
2022/11/06 05:19:02;;;;;;;94.97;12.15;;;;;;;12.24;100.00;98182.34;5017406;28;20092;-58
2022/11/06 05:24:11;;;;;;;116.38;13.10;;;;;;;12.16;100.00;98198.38;5017344;28;20032;-59
2022/11/06 05:26:37;;;;;;;145.05;13.65;;;;;;;12.06;100.00;98194.50;5013966;28;20042;-58
2022/11/06 05:29:02;;;;;;;124.38;12.68;;;;;;;11.97;100.00;98182.66;5016756;28;20021;-57
2022/11/06 05:31:28;;;;;;;39.30;9.02;;;;;;;13.25;100.00;98174.13;5015172;28;20044;-59
2022/11/06 05:33:53;;;;;;;134.23;13.55;;;;;;;11.93;100.00;98174.09;5016915;28;20041;-61
2022/11/06 05:36:18;;;;;;;55.28;9.68;;;;;;;13.21;100.00;98169.97;5016412;28;20038;-60
2022/11/06 05:38:44;;;;;;;99.60;12.40;;;;;;;12.28;100.00;98178.69;5016207;28;20465;-59
2022/11/06 05:41:09;;;;;;;42.63;8.45;;;;;;;13.30;100.00;98175.63;5014108;28;20118;-59
2022/11/06 05:43:35;;;;;;;47.78;9.23;;;;;;;12.38;100.00;98166.88;5015315;28;20021;-61
2022/11/06 05:46:00;;;;;;;55.30;9.88;;;;;;;12.11;100.00;98158.50;5015422;28;20038;-59
2022/11/06 05:48:27;;;;;;;55.97;8.93;;;;;;;11.93;100.00;98163.66;5016835;28;20063;-58
2022/11/06 05:50:53;;;;;;;60.92;9.32;;;;;;;12.62;100.00;98157.03;5015072;28;20050;-61
2022/11/06 05:53:18;;;;;;;96.13;9.57;;;;;;;12.79;100.00;98158.88;5016346;28;20152;-57
2022/11/06 05:55:46;;;;;;;78.00;10.00;;;;;;;12.20;100.00;98157.25;5015469;28;20107;-57
2022/11/06 05:58:13;;;;;;;53.67;8.80;;;;;;;12.58;100.00;98155.50;5014765;28;20753;-57
2022/11/06 06:00:38;;;;;;;49.53;9.13;;;;;;;12.13;100.00;98157.53;5015333;28;20042;-57
2022/11/06 06:03:04;;;;;;;91.18;9.57;;;;;;;11.84;100.00;98160.56;5015095;28;20033;-57
2022/11/06 06:05:29;;;;;;;31.95;7.05;;;;;;;12.99;100.00;98155.28;5015966;28;20505;-57
2022/11/06 06:07:55;;;;;;;49.70;8.23;;;;;;;11.81;100.00;98158.06;5014860;28;20087;-59
2022/11/06 06:10:20;;;;;;;42.40;7.72;;;;;;;12.39;100.00;98155.50;5014475;28;20025;-61
2022/11/06 06:12:48;;;;;;;155.38;10.82;;;;;;;11.67;100.00;98162.13;5013613;28;20235;-60
2022/11/06 06:15:14;;;;;;;93.95;10.88;;;;;;;11.29;100.00;98161.97;5015001;28;20032;-60
2022/11/06 06:17:39;;;;;;;92.45;9.02;;;;;;;11.18;100.00;98153.75;5015764;28;20025;-58
2022/11/06 06:20:05;;;;;;;289.60;11.95;;;;;;;11.06;100.00;98156.84;5015497;28;20718;-61
2022/11/06 06:22:30;;;;;;;131.65;10.57;;;;;;;10.89;100.00;98155.75;5019780;28;20520;-60
2022/11/06 06:24:56;;;;;;;261.65;13.85;;;;;;;8.88;100.00;98142.94;5015775;28;20682;-61
2022/11/06 06:27:21;;;;;;;314.45;14.02;;;;;;;10.02;100.00;98145.09;5013200;28;20625;-62
2022/11/06 06:29:46;;;;;;;209.45;14.68;;;;;;;10.50;100.00;98156.41;5014325;28;20032;-60
2022/11/06 06:32:12;;;;;;;181.75;11.45;;;;;;;11.56;100.00;98164.31;5014388;28;20034;-60
2022/11/06 06:34:37;;;;;;;122.50;10.10;;;;;;;11.92;100.00;98176.78;5015771;28;20735;-59
2022/11/06 06:37:02;;;;;;;370.40;14.18;;;;;;;11.61;100.00;98169.38;5015160;28;20044;-66
2022/11/06 06:39:28;;;;;;;142.85;10.43;;;;;;;11.28;100.00;98175.09;5015729;28;20037;-62
2022/11/06 06:41:53;;;;;;;110.80;10.20;;;;;;;11.35;100.00;98174.75;5009916;28;20145;-62
2022/11/06 06:44:19;;;;;;;181.23;11.85;;;;;;;10.88;100.00;98177.56;5015003;28;20436;-60
2022/11/06 06:46:45;;;;;;;100.57;9.18;;;;;;;11.93;100.00;98181.09;5014784;28;20033;-61
2022/11/06 06:49:10;;;;;;;86.82;9.52;;;;;;;12.19;100.00;98189.56;5015943;28;20040;-59
2022/11/06 06:51:36;;;;;;;88.13;9.52;;;;;;;12.85;100.00;98190.00;5014144;28;20037;-57
2022/11/06 06:54:01;;;;;;;84.00;10.55;;;;;;;12.14;100.00;98200.22;5015607;28;20112;-60
2022/11/06 06:56:26;;;;;;;110.43;10.20;;;;;;;12.21;100.00;98200.81;5013942;28;20052;-60
2022/11/06 06:58:53;;;;;;;55.63;9.93;;;;;;;12.24;100.00;98198.91;5013936;28;20040;-58
2022/11/06 07:01:18;;;;;;;86.63;10.35;;;;;;;11.60;100.00;98205.13;5013718;28;20049;-58
2022/11/06 07:03:43;;;;;;;87.45;9.48;;;;;;;12.04;100.00;98212.84;5014864;28;20083;-59
2022/11/06 07:06:09;;;;;;;111.30;10.98;;;;;;;12.05;100.00;98219.75;5015439;28;20172;-60
2022/11/06 07:08:34;;;;;;;55.28;9.45;;;;;;;12.17;100.00;98241.06;5016194;28;20026;-60
2022/11/06 07:11:02;;;;;;;104.13;11.73;;;;;;;10.41;100.00;98240.19;5012894;28;20088;-59
2022/11/06 07:13:27;;;;;;;48.75;9.63;;;;;;;11.61;100.00;98245.13;5013912;28;20605;-61
2022/11/06 07:15:53;;;;;;;64.50;10.10;;;;;;;11.33;100.00;98241.03;5015000;28;20041;-61
2022/11/06 07:18:18;;;;;;;74.88;9.00;;;;;;;11.68;100.00;98250.03;5014594;28;20052;-58
2022/11/06 07:20:44;;;;;;;59.88;9.27;;;;;;;11.89;100.00;98235.25;5013875;28;20113;-60
2022/11/06 07:23:09;;;;;;;40.22;8.70;;;;;;;12.67;100.00;98224.88;5014768;28;20053;-62
2022/11/06 07:25:34;;;;;;;82.10;8.20;;;;;;;13.00;100.00;98219.00;5013706;28;20065;-58
2022/11/06 07:28:04;;;;;;;56.53;8.80;;;;;;;12.97;100.00;98211.28;5012804;28;20029;-62
2022/11/06 07:30:30;;;;;;;48.47;10.20;;;;;;;12.53;100.00;98213.28;5013947;28;20065;-61
2022/11/06 07:32:59;;;;;;;43.10;9.73;;;;;;;12.09;100.00;98210.88;5018511;28;20048;-61
2022/11/06 07:35:24;;;;;;;75.82;10.70;;;;;;;12.80;100.00;98201.59;5018402;28;20443;-60
2022/11/06 07:37:49;;;;;;;45.33;10.55;;;;;;;12.99;100.00;98202.41;5018723;28;20506;-59
2022/11/06 07:40:14;;;;;;;49.42;10.93;;;;;;;12.75;100.00;98193.97;5017405;28;20030;-59
2022/11/06 07:42:40;;;;;;;62.13;11.82;;;;;;;11.75;100.00;98201.84;5016596;28;20652;-61
2022/11/06 07:45:06;;;;;;;36.97;8.95;;;;;;;12.84;100.00;98201.38;5018545;28;20114;-61
2022/11/06 07:47:31;;;;;;;55.47;11.00;;;;;;;12.35;100.00;98203.63;5017755;28;20099;-61
2022/11/06 07:49:57;;;;;;;113.70;13.75;;;;;;;11.84;100.00;98202.38;5018164;28;20025;-60
2022/11/06 07:52:22;;;;;;;50.08;11.23;;;;;;;12.52;100.00;98197.66;5017934;28;20286;-61
2022/11/06 07:54:48;;;;;;;95.72;11.93;;;;;;;13.91;100.00;98194.44;5017207;28;20025;-61
2022/11/06 07:57:13;;;;;;;60.83;11.07;;;;;;;13.41;100.00;98193.44;5015604;28;20041;-61
2022/11/06 07:59:39;;;;;;;53.17;10.40;;;;;;;13.79;100.00;98180.19;5016627;28;20021;-60
2022/11/06 08:02:04;;;;;;;55.65;11.13;;;;;;;13.55;100.00;98192.75;5006131;28;20037;-58
2022/11/06 08:04:29;;;;;;;84.68;11.90;;;;;;;12.33;100.00;98198.50;5010860;28;20025;-58
2022/11/06 08:06:58;;;;;;;105.00;11.02;;;;;;;14.34;100.00;98194.81;5018165;28;20520;-59
2022/11/06 08:09:25;;;;;;;47.55;10.32;;;;;;;13.01;100.00;98190.13;5009114;28;20121;-58
2022/11/06 08:11:51;;;;;;;40.85;10.20;;;;;;;13.59;100.00;98181.19;5015251;28;20510;-58
2022/11/06 08:14:16;;;;;;;54.00;11.18;;;;;;;13.98;100.00;98172.22;5015724;28;20095;-59
2022/11/06 08:16:41;;;;;;;45.47;10.52;;;;;;;12.86;100.00;98178.59;5015990;28;20034;-60
2022/11/06 08:19:07;;;;;;;46.35;10.95;;;;;;;14.36;100.00;98184.25;5015716;28;20025;-64
2022/11/06 08:21:33;;;;;;;44.80;10.43;;;;;;;15.09;100.00;98176.75;5015779;28;20095;-61
2022/11/06 08:23:58;;;;;;;49.28;11.60;;;;;;;13.41;100.00;98172.47;5017824;28;20029;-63
2022/11/06 08:26:24;;;;;;;45.03;11.07;;;;;;;14.19;100.00;98158.88;5015821;28;20029;-62
2022/11/06 08:28:50;;;;;;;50.97;12.40;;;;;;;13.66;100.00;98161.63;5015494;28;20017;-60
2022/11/06 08:31:15;;;;;;;48.25;12.05;;;;;;;14.89;100.00;98158.63;5015457;28;20039;-62
2022/11/06 08:33:41;;;;;;;40.53;10.27;;;;;;;14.64;100.00;98150.34;5016748;28;20044;-60
2022/11/06 08:36:07;;;;;;;38.67;10.43;;;;;;;14.61;100.00;98144.41;5016472;28;20073;-62
2022/11/06 08:38:35;;;;;;;47.53;10.90;;;;;;;14.24;100.00;98125.38;5016702;28;20021;-60
2022/11/06 08:41:05;;;;;;;52.45;12.07;;;;;;;13.52;100.00;98122.16;5014135;28;20030;-60
2022/11/06 08:43:31;;;;;;;46.78;11.55;;;;;;;14.76;100.00;98127.81;5014907;28;20462;-62
2022/11/06 08:45:58;;;;;;;53.47;11.57;;;;;;;15.06;100.00;98123.56;5016454;28;20041;-60
2022/11/06 08:48:23;;;;;;;48.92;13.02;;;;;;;15.25;100.00;98124.16;5016922;28;20029;-60
2022/11/06 08:50:48;;;;;;;47.25;12.27;;;;;;;14.96;100.00;98133.72;5015828;28;20033;-61
2022/11/06 08:53:14;;;;;;;55.22;15.10;;;;;;;16.08;100.00;98124.53;5016489;28;20033;-61
2022/11/06 08:55:39;;;;;;;61.03;15.88;;;;;;;15.46;100.00;98122.06;5013604;28;20037;-61
2022/11/06 08:58:05;;;;;;;58.90;15.00;;;;;;;16.17;100.00;98118.69;5015553;28;20478;-62
2022/11/06 09:00:32;;;;;;;40.92;11.75;;;;;;;15.14;100.00;98116.91;5015238;28;20044;-63
2022/11/06 09:02:59;;;;;;;39.33;9.75;;;;;;;15.67;100.00;98121.72;5016089;28;20037;-61
2022/11/06 09:05:24;;;;;;;39.33;10.35;;;;;;;15.36;100.00;98115.66;5015230;28;20558;-63
2022/11/06 09:07:50;;;;;;;40.72;10.30;;;;;;;16.16;100.00;98110.91;5016410;28;20036;-62
2022/11/06 09:10:15;;;;;;;37.42;10.07;;;;;;;15.00;100.00;98114.25;5014764;28;20373;-62
2022/11/06 09:12:40;;;;;;;43.55;10.43;;;;;;;14.85;100.00;98110.72;5013488;28;20022;-61
2022/11/06 09:15:06;;;;;;;35.33;9.52;;;;;;;15.90;100.00;98107.22;5015875;28;20116;-60
2022/11/06 09:17:32;;;;;;;39.88;10.98;;;;;;;15.20;100.00;98103.44;5015783;28;20053;-64
2022/11/06 09:19:57;;;;;;;34.10;9.57;;;;;;;15.97;100.00;98104.13;5015592;28;20723;-62
2022/11/06 09:22:23;;;;;;;34.67;8.93;;;;;;;15.48;100.00;98099.19;5014961;28;20124;-61
2022/11/06 09:24:48;;;;;;;39.58;10.57;;;;;;;14.41;100.00;98090.34;5015340;28;20151;-63
2022/11/06 09:27:14;;;;;;;30.40;9.45;;;;;;;15.70;100.00;98079.50;5014278;28;20627;-60
2022/11/06 09:29:42;;;;;;;34.67;9.55;;;;;;;15.28;100.00;98081.13;5014497;28;20469;-61
2022/11/06 09:32:08;;;;;;;27.50;8.88;;;;;;;15.53;100.00;98070.84;5015175;28;20515;-60
2022/11/06 09:34:33;;;;;;;35.50;9.95;;;;;;;15.68;100.00;98068.19;5015401;28;20044;-61
2022/11/06 09:37:01;;;;;;;31.50;9.60;;;;;;;15.78;100.00;98074.63;5015881;28;20034;-58
2022/11/06 09:39:26;;;;;;;36.55;10.68;;;;;;;15.68;100.00;98063.81;5016160;28;20148;-59
2022/11/06 09:42:22;;;;;;;33.80;9.48;;;;;;;16.21;100.00;98066.72;5012084;28;20083;-59
2022/11/06 09:44:55;;;;;;;28.55;8.73;;;;;;;15.29;100.00;98059.13;5014467;28;20021;-60
2022/11/06 09:47:24;;;;;;;35.97;9.70;;;;;;;16.80;100.00;98052.41;5015400;28;20069;-62
2022/11/06 09:49:53;;;;;;;54.67;12.60;;;;;;;16.64;100.00;98045.53;5014388;28;20025;-64
2022/11/06 09:52:31;;;;;;;42.75;11.88;;;;;;;16.67;100.00;98042.72;5014910;28;20578;-61
2022/11/06 09:55:01;;;;;;;31.40;10.13;;;;;;;16.84;100.00;98030.25;5014490;28;20057;-59
2022/11/06 09:57:34;;;;;;;28.73;9.63;;;;;;;16.78;100.00;98028.84;5013717;28;20087;-60
2022/11/06 10:00:01;;;;;;;28.75;9.52;;;;;;;17.01;100.00;98032.59;5013547;28;20029;-61
2022/11/06 10:02:42;;;;;;;29.45;9.40;;;;;;;16.85;100.00;98034.56;5014676;28;20049;-60
2022/11/06 10:05:14;;;;;;;30.58;9.00;;;;;;;15.21;100.00;98038.56;5014679;28;20039;-61
2022/11/06 10:07:41;;;;;;;28.70;8.40;;;;;;;16.73;100.00;98037.03;5015092;28;20037;-60
2022/11/06 10:10:14;;;;;;;27.60;9.10;;;;;;;16.58;100.00;98027.50;5013517;28;20079;-63
2022/11/06 10:13:21;;;;;;;35.65;10.25;;;;;;;16.33;100.00;98015.09;5012824;28;20021;-60
2022/11/06 10:16:00;;;;;;;40.33;11.48;;;;;;;16.04;100.00;98019.56;4951921;28;20077;-63
2022/11/06 10:18:48;;;;;;;30.88;10.88;;;;;;;16.61;100.00;98016.75;5008244;28;20040;-60
2022/11/06 10:21:50;;;;;;;41.72;11.77;;;;;;;16.52;100.00;98002.44;5013403;28;20041;-62
2022/11/06 10:24:22;;;;;;;35.88;9.68;;;;;;;17.01;100.00;98008.88;5005087;28;20047;-62
2022/11/06 10:26:54;;;;;;;34.53;10.50;;;;;;;16.52;100.00;98001.56;5012177;28;20439;-61
2022/11/06 10:29:34;;;;;;;33.30;10.27;;;;;;;17.12;100.00;98006.38;5014802;28;20725;-60
2022/11/06 10:32:15;;;;;;;37.67;10.48;;;;;;;17.53;100.00;98010.63;5013901;28;20038;-64
2022/11/06 10:34:51;;;;;;;30.13;9.60;;;;;;;18.34;100.00;98005.81;5015966;28;20260;-60
2022/11/06 10:37:22;;;;;;;38.83;10.40;;;;;;;16.52;100.00;98004.19;5015291;28;20049;-61
2022/11/06 10:39:48;;;;;;;52.60;12.17;;;;;;;17.79;100.00;98013.22;5014858;28;20067;-62
2022/11/06 10:42:17;;;;;;;35.83;9.43;;;;;;;17.74;100.00;98004.78;5013228;28;20120;-63
2022/11/06 10:44:49;;;;;;;40.30;10.75;;;;;;;17.13;100.00;97992.25;5014619;28;20717;-60
2022/11/06 10:47:20;;;;;;;28.77;7.95;;;;;;;18.28;100.00;97991.25;5014639;28;20491;-61
2022/11/06 10:49:55;;;;;;;34.30;9.10;;;;;;;16.84;100.00;97985.47;5015296;28;20024;-62
2022/11/06 10:52:39;;;;;;;36.25;9.77;;;;;;;16.19;100.00;97984.38;5014350;28;20160;-60
2022/11/06 10:55:44;;;;;;;32.28;8.98;;;;;;;17.70;100.00;97982.22;5015012;28;20075;-60
2022/11/06 10:58:14;;;;;;;27.80;8.40;;;;;;;16.62;100.00;97976.31;5014088;28;20040;-62
2022/11/06 11:00:40;;;;;;;40.88;9.65;;;;;;;18.07;100.00;97969.09;5013914;28;20041;-64
2022/11/06 11:03:18;;;;;;;30.63;9.20;;;;;;;18.29;99.96;97969.19;5014680;28;20033;-64
2022/11/06 11:05:43;;;;;;;39.58;9.63;;;;;;;16.99;99.99;97963.34;5015099;28;20042;-61
2022/11/06 11:08:27;;;;;;;35.53;9.07;;;;;;;17.72;100.00;97957.41;5019634;28;20036;-61
2022/11/06 11:11:00;;;;;;;37.13;10.30;;;;;;;17.37;100.00;97949.34;5017233;28;20065;-62
2022/11/06 11:13:25;;;;;;;36.22;9.23;;;;;;;16.85;97.76;97950.28;5018389;28;20017;-60
2022/11/06 11:15:51;;;;;;;48.80;10.77;;;;;;;17.55;100.00;97957.75;5017162;28;20049;-65
2022/11/06 11:18:30;;;;;;;43.35;10.82;;;;;;;16.43;99.62;97950.38;5015887;28;20112;-62
2022/11/06 11:21:14;;;;;;;36.30;10.38;;;;;;;16.44;100.00;97940.69;5016498;28;21021;-61
2022/11/06 11:23:39;;;;;;;38.42;10.15;;;;;;;15.09;100.00;97929.84;5018315;28;20029;-63
2022/11/06 11:26:18;;;;;;;35.80;9.98;;;;;;;15.82;100.00;97933.28;5015632;28;20447;-60
2022/11/06 11:28:50;;;;;;;34.30;9.68;;;;;;;16.20;100.00;97922.91;5017074;28;20083;-60
2022/11/06 11:31:17;;;;;;;33.85;8.93;;;;;;;16.52;100.00;97927.84;5016660;28;20046;-62
2022/11/06 11:33:55;;;;;;;32.22;8.25;;;;;;;15.08;100.00;97922.88;5018210;28;20029;-61
2022/11/06 11:36:20;;;;;;;42.35;9.98;;;;;;;15.40;100.00;97922.69;5017326;28;20033;-63